Time;durP1;ratioP1;P1;durP2;ratioP2;P2;SDS_P1;SDS_P2;PMS_P1;PMS_P2;Temp;Humidity;BMP_temperature;BMP_pressure;BME280_temperature;BME280_humidity;BME280_pressure;Samples;Min_cycle;Max_cycle;Signal;HPM_P1;HPM_P2
2023/11/14 00:00:34;;;;;;;31.52;7.30;;;;;;;9.52;100.00;98948.63;4998508;28;20149;-48
2023/11/14 00:03:04;;;;;;;16.70;4.28;;;;;;;9.54;100.00;98946.25;5007091;28;20049;-44
2023/11/14 00:05:35;;;;;;;18.88;4.40;;;;;;;9.55;100.00;98947.84;4984458;28;20041;-51
2023/11/14 00:08:03;;;;;;;20.40;4.70;;;;;;;9.56;100.00;98946.66;4989498;28;20431;-45
2023/11/14 00:10:30;;;;;;;27.65;5.22;;;;;;;9.55;100.00;98943.13;4988684;28;20092;-44
2023/11/14 00:12:57;;;;;;;26.10;6.22;;;;;;;9.53;100.00;98950.22;5005540;28;20128;-48
2023/11/14 00:15:26;;;;;;;31.10;5.68;;;;;;;9.51;100.00;98958.06;5006081;28;20135;-44
2023/11/14 00:17:53;;;;;;;20.63;5.82;;;;;;;9.51;100.00;98952.53;5005874;28;20141;-47
2023/11/14 00:20:21;;;;;;;24.63;6.78;;;;;;;9.50;100.00;98949.00;5005543;28;20676;-47
2023/11/14 00:22:48;;;;;;;36.65;6.50;;;;;;;9.49;100.00;98943.84;4988833;28;20046;-44
2023/11/14 00:25:15;;;;;;;36.15;6.63;;;;;;;9.47;100.00;98938.72;5007267;28;20040;-46
2023/11/14 00:27:42;;;;;;;27.10;4.88;;;;;;;9.48;100.00;98943.03;5005882;28;20045;-47
2023/11/14 00:30:09;;;;;;;31.30;7.22;;;;;;;9.51;100.00;98939.53;5005420;28;20073;-46
2023/11/14 00:32:37;;;;;;;25.98;5.00;;;;;;;9.54;100.00;98946.25;4991921;28;20057;-48
2023/11/14 00:35:05;;;;;;;31.90;5.07;;;;;;;9.56;100.00;98943.91;4994160;28;20129;-49
2023/11/14 00:37:33;;;;;;;31.83;6.28;;;;;;;9.58;100.00;98944.34;4990004;28;21117;-44
2023/11/14 00:39:59;;;;;;;27.70;5.13;;;;;;;9.59;100.00;98945.91;4993208;28;20778;-44
2023/11/14 00:42:27;;;;;;;21.88;5.38;;;;;;;9.62;100.00;98939.63;4987932;28;20051;-47
2023/11/14 00:44:54;;;;;;;32.40;5.75;;;;;;;9.63;100.00;98943.97;4987649;28;20046;-46
2023/11/14 00:47:21;;;;;;;28.70;5.20;;;;;;;9.62;100.00;98947.91;4987986;28;20105;-44
2023/11/14 00:49:47;;;;;;;38.72;5.85;;;;;;;9.62;100.00;98940.41;4987754;28;20042;-45
2023/11/14 00:52:14;;;;;;;29.45;5.85;;;;;;;9.60;100.00;98939.22;4980203;28;20389;-45
2023/11/14 00:54:41;;;;;;;29.05;7.40;;;;;;;9.57;100.00;98938.00;4989341;28;20034;-45
2023/11/14 00:57:08;;;;;;;30.85;6.25;;;;;;;9.57;100.00;98938.00;4989471;28;20038;-44
2023/11/14 00:59:34;;;;;;;25.67;6.13;;;;;;;9.55;100.00;98937.59;4998405;28;20070;-46
2023/11/14 01:02:06;;;;;;;26.88;5.65;;;;;;;9.53;100.00;98939.16;4978458;28;20054;-45
2023/11/14 01:04:37;;;;;;;32.97;6.70;;;;;;;9.50;100.00;98945.44;4989128;28;20577;-45
2023/11/14 01:07:05;;;;;;;24.50;4.10;;;;;;;9.49;100.00;98943.84;4999739;28;20030;-47
2023/11/14 01:09:32;;;;;;;27.65;4.68;;;;;;;9.48;100.00;98945.00;4996764;28;20034;-45
2023/11/14 01:11:58;;;;;;;27.05;5.72;;;;;;;9.47;100.00;98946.19;4996975;28;20045;-46
2023/11/14 01:14:26;;;;;;;22.50;6.78;;;;;;;9.47;100.00;98940.69;4987867;28;20045;-44
2023/11/14 01:16:53;;;;;;;30.92;5.18;;;;;;;9.45;100.00;98940.28;4994118;28;20066;-48
2023/11/14 01:19:20;;;;;;;24.30;4.40;;;;;;;9.45;100.00;98943.03;4990592;28;20061;-44
2023/11/14 01:21:48;;;;;;;30.02;5.85;;;;;;;9.45;100.00;98943.03;4991431;28;20050;-49
2023/11/14 01:24:16;;;;;;;29.23;6.85;;;;;;;9.44;100.00;98945.00;4991289;28;20483;-48
2023/11/14 01:26:43;;;;;;;32.08;5.55;;;;;;;9.43;100.00;98940.63;4991173;28;20046;-47
2023/11/14 01:29:10;;;;;;;34.08;5.38;;;;;;;9.44;100.00;98952.50;5000850;28;20046;-47
2023/11/14 01:31:36;;;;;;;31.08;5.18;;;;;;;9.46;100.00;98950.13;5002427;28;20054;-45
2023/11/14 01:34:03;;;;;;;31.90;7.55;;;;;;;9.48;100.00;98950.53;5010237;28;20052;-49
2023/11/14 01:36:30;;;;;;;28.88;5.15;;;;;;;9.51;100.00;98949.78;5010102;28;20065;-44
2023/11/14 01:38:57;;;;;;;24.42;4.38;;;;;;;9.51;100.00;98945.06;5010506;28;20608;-46
2023/11/14 01:41:24;;;;;;;20.67;5.50;;;;;;;9.53;100.00;98944.69;5010319;28;20057;-45
2023/11/14 01:43:50;;;;;;;23.92;4.40;;;;;;;9.53;100.00;98936.41;5010582;28;20096;-47
2023/11/14 01:46:18;;;;;;;29.02;5.05;;;;;;;9.52;100.00;98937.56;5009988;28;20416;-47
2023/11/14 01:48:51;;;;;;;26.45;4.53;;;;;;;9.51;100.00;98931.25;5010347;28;20034;-46
2023/11/14 01:51:21;;;;;;;28.38;7.05;;;;;;;9.51;100.00;98942.28;5009069;28;20034;-46
2023/11/14 01:53:49;;;;;;;21.67;4.78;;;;;;;9.51;100.00;98930.44;5009439;28;20046;-49
2023/11/14 01:56:17;;;;;;;26.15;4.47;;;;;;;9.51;100.00;98930.44;5009581;28;20088;-49
2023/11/14 01:58:46;;;;;;;20.70;5.22;;;;;;;9.50;100.00;98926.91;5010160;28;20452;-46
2023/11/14 02:01:13;;;;;;;16.73;4.78;;;;;;;9.50;100.00;98926.91;5009317;28;20041;-48
2023/11/14 02:03:41;;;;;;;27.25;5.88;;;;;;;9.49;100.00;98927.28;5010355;28;20045;-46
2023/11/14 02:06:09;;;;;;;21.40;3.83;;;;;;;9.47;100.00;98924.91;5009904;28;20045;-45
2023/11/14 02:08:36;;;;;;;25.23;4.85;;;;;;;9.48;100.00;98923.72;5010256;28;20046;-47
2023/11/14 02:11:03;;;;;;;21.83;4.63;;;;;;;9.49;100.00;98916.22;4996783;28;20133;-46
2023/11/14 02:13:30;;;;;;;27.25;5.75;;;;;;;9.50;100.00;98917.81;5010014;28;20038;-48
2023/11/14 02:15:57;;;;;;;30.55;4.13;;;;;;;9.51;100.00;98922.16;5009920;28;20046;-46
2023/11/14 02:18:24;;;;;;;20.55;4.95;;;;;;;9.51;100.00;98925.72;5009371;28;20476;-46
2023/11/14 02:20:51;;;;;;;25.15;4.93;;;;;;;9.52;100.00;98926.50;4999023;28;20046;-48
2023/11/14 02:23:19;;;;;;;21.00;5.60;;;;;;;9.52;100.00;98929.28;5009619;28;20124;-47
2023/11/14 02:25:46;;;;;;;26.02;4.15;;;;;;;9.51;100.00;98922.16;5001019;28;20455;-47
2023/11/14 02:28:13;;;;;;;20.35;4.65;;;;;;;9.49;100.00;98930.84;5008573;28;20507;-45
2023/11/14 02:30:40;;;;;;;23.90;5.13;;;;;;;9.48;100.00;98936.72;5009435;28;20143;-47
2023/11/14 02:33:08;;;;;;;23.42;5.47;;;;;;;9.46;100.00;98928.03;5009299;28;20038;-49
2023/11/14 02:35:34;;;;;;;20.20;4.07;;;;;;;9.45;100.00;98932.00;4991528;28;20045;-45
2023/11/14 02:38:01;;;;;;;19.13;3.78;;;;;;;9.43;100.00;98931.56;5009082;28;20132;-50
2023/11/14 02:40:28;;;;;;;27.77;3.83;;;;;;;9.41;100.00;98931.16;5009094;28;20495;-46
2023/11/14 02:42:55;;;;;;;23.88;4.10;;;;;;;9.38;100.00;98932.72;5009080;28;20150;-47
2023/11/14 02:45:22;;;;;;;19.48;3.97;;;;;;;9.39;100.00;98933.50;5009336;28;20033;-47
2023/11/14 02:47:49;;;;;;;24.55;3.58;;;;;;;9.38;100.00;98932.72;5008946;28;20046;-49
2023/11/14 02:50:25;;;;;;;18.38;3.92;;;;;;;9.40;100.00;98940.63;5008828;28;20042;-48
2023/11/14 02:52:51;;;;;;;24.00;3.97;;;;;;;9.42;100.00;98941.03;5009314;28;20046;-46
2023/11/14 02:55:18;;;;;;;21.15;4.72;;;;;;;9.43;100.00;98940.63;5008387;28;20042;-47
2023/11/14 02:57:45;;;;;;;14.93;4.25;;;;;;;9.44;100.00;98938.69;5009182;28;20041;-49
2023/11/14 03:00:15;;;;;;;13.63;3.60;;;;;;;9.45;100.00;98943.03;5007588;28;20046;-47
2023/11/14 03:02:40;;;;;;;25.20;5.07;;;;;;;9.47;100.00;98944.25;5111596;22;20054;-47
2023/11/14 03:05:07;;;;;;;19.35;3.65;;;;;;;9.48;100.00;98943.03;5008262;28;20049;-49
2023/11/14 03:07:34;;;;;;;16.98;4.82;;;;;;;9.49;100.00;98938.31;5007928;28;20061;-50
2023/11/14 03:10:04;;;;;;;17.20;3.38;;;;;;;9.50;100.00;98937.97;5008822;28;20060;-48
2023/11/14 03:12:31;;;;;;;12.65;3.03;;;;;;;9.53;100.00;98936.41;5008407;28;20128;-51
2023/11/14 03:14:58;;;;;;;17.50;2.67;;;;;;;9.53;100.00;98939.94;5008174;28;20068;-47
2023/11/14 03:17:25;;;;;;;19.25;2.78;;;;;;;9.52;100.00;98934.81;5003310;28;20058;-47
2023/11/14 03:19:52;;;;;;;16.98;3.55;;;;;;;9.51;100.00;98941.50;5003532;28;20604;-46
2023/11/14 03:22:18;;;;;;;18.83;4.25;;;;;;;9.47;100.00;98935.97;5007933;28;20509;-45
2023/11/14 03:24:45;;;;;;;16.63;3.13;;;;;;;9.44;100.00;98928.44;5008121;28;20133;-47
2023/11/14 03:27:12;;;;;;;16.27;2.75;;;;;;;9.41;100.00;98931.16;5007676;28;20037;-51
2023/11/14 03:29:39;;;;;;;11.32;2.90;;;;;;;9.40;100.00;98929.59;5008166;28;20046;-47
2023/11/14 03:32:06;;;;;;;18.90;3.95;;;;;;;9.39;100.00;98926.03;5006937;28;20057;-49
2023/11/14 03:34:33;;;;;;;19.65;3.05;;;;;;;9.37;100.00;98928.34;5008388;28;20069;-49
2023/11/14 03:36:59;;;;;;;19.65;3.25;;;;;;;9.38;100.00;98929.94;5007707;28;20034;-47
2023/11/14 03:39:28;;;;;;;18.75;3.75;;;;;;;9.40;100.00;98929.59;5007035;28;20041;-47
2023/11/14 03:41:55;;;;;;;18.80;3.53;;;;;;;9.41;100.00;98922.88;5007561;28;20125;-45
2023/11/14 03:44:22;;;;;;;24.30;4.57;;;;;;;9.41;100.00;98931.94;5008167;28;20048;-45
2023/11/14 03:46:49;;;;;;;23.17;4.95;;;;;;;9.41;100.00;98929.19;5007668;28;20046;-45
2023/11/14 03:49:16;;;;;;;19.13;4.82;;;;;;;9.42;100.00;98921.69;5007950;28;20565;-46
2023/11/14 03:51:43;;;;;;;29.45;4.65;;;;;;;9.41;100.00;98920.09;5006739;28;20810;-45
2023/11/14 03:54:10;;;;;;;25.65;4.43;;;;;;;9.39;100.00;98916.94;5007524;28;20096;-46
2023/11/14 03:56:37;;;;;;;16.98;3.55;;;;;;;9.37;100.00;98909.00;5008183;28;20037;-45
2023/11/14 03:59:03;;;;;;;16.02;2.95;;;;;;;9.38;100.00;98915.34;5002753;28;20046;-45
2023/11/14 04:01:31;;;;;;;17.30;4.05;;;;;;;9.39;100.00;98919.69;5006276;28;20137;-44
2023/11/14 04:03:59;;;;;;;16.35;3.03;;;;;;;9.38;100.00;98918.09;5007309;28;20092;-45
2023/11/14 04:06:26;;;;;;;20.17;4.45;;;;;;;9.37;100.00;98919.28;5007624;28;20046;-45
2023/11/14 04:08:52;;;;;;;16.38;2.95;;;;;;;9.37;100.00;98924.81;5007250;28;20499;-46
2023/11/14 04:11:19;;;;;;;23.20;4.00;;;;;;;9.36;100.00;98929.53;5005655;28;20030;-46
2023/11/14 04:13:47;;;;;;;12.23;3.40;;;;;;;9.36;100.00;98934.25;5007236;28;20133;-45
2023/11/14 04:16:15;;;;;;;17.20;2.63;;;;;;;9.33;100.00;98933.06;5006929;28;20042;-44
2023/11/14 04:18:42;;;;;;;18.60;3.25;;;;;;;9.31;100.00;98937.38;5006635;28;20046;-46
2023/11/14 04:21:09;;;;;;;13.23;3.00;;;;;;;9.31;100.00;98937.38;4996602;28;20125;-45
2023/11/14 04:23:37;;;;;;;12.40;2.30;;;;;;;9.30;100.00;98938.53;5007860;28;20050;-44
2023/11/14 04:26:04;;;;;;;22.25;3.50;;;;;;;9.31;100.00;98926.31;5007215;28;20062;-47
2023/11/14 04:28:31;;;;;;;17.75;3.85;;;;;;;9.28;100.00;98929.84;4995718;28;20052;-45
2023/11/14 04:30:58;;;;;;;13.38;3.35;;;;;;;9.25;100.00;98927.84;5007663;28;20045;-45
2023/11/14 04:33:24;;;;;;;13.52;3.72;;;;;;;9.24;100.00;98934.56;5006742;28;20047;-45
2023/11/14 04:35:51;;;;;;;21.30;3.78;;;;;;;9.22;100.00;98921.13;5007840;28;20037;-48
2023/11/14 04:38:18;;;;;;;14.27;2.90;;;;;;;9.23;100.00;98930.19;5005361;28;20105;-44
2023/11/14 04:40:44;;;;;;;19.27;2.97;;;;;;;9.23;100.00;98924.69;5001211;28;20068;-45
2023/11/14 04:43:11;;;;;;;10.88;3.60;;;;;;;9.22;100.00;98929.41;5007073;28;20061;-45
2023/11/14 04:45:38;;;;;;;16.15;2.67;;;;;;;9.21;100.00;98932.56;5003074;28;20042;-44
2023/11/14 04:48:05;;;;;;;11.80;2.85;;;;;;;9.20;100.00;98934.50;5007225;28;20499;-46
2023/11/14 04:50:32;;;;;;;18.70;3.25;;;;;;;9.15;100.00;98927.38;5008679;28;20037;-46
2023/11/14 04:52:58;;;;;;;18.65;3.45;;;;;;;9.12;100.00;98941.94;5010247;28;20038;-44
2023/11/14 04:55:25;;;;;;;22.30;3.38;;;;;;;9.10;100.00;98938.78;5010849;28;20074;-45
2023/11/14 04:57:52;;;;;;;12.18;2.97;;;;;;;9.08;100.00;98935.56;5011547;28;20088;-46
2023/11/14 05:00:18;;;;;;;18.83;4.45;;;;;;;9.10;100.00;98937.97;5010655;28;20058;-47
2023/11/14 05:02:45;;;;;;;15.40;4.55;;;;;;;9.12;100.00;98941.13;5010183;28;20107;-47
2023/11/14 05:05:12;;;;;;;19.17;3.88;;;;;;;9.10;100.00;98944.28;5010638;28;20476;-44
2023/11/14 05:07:41;;;;;;;16.85;2.78;;;;;;;9.07;100.00;98945.03;5011010;28;20131;-48
2023/11/14 05:10:09;;;;;;;20.85;3.22;;;;;;;9.05;100.00;98950.13;5010049;28;20034;-46
2023/11/14 05:12:36;;;;;;;18.20;2.83;;;;;;;9.06;100.00;98950.94;5010180;28;20046;-45
2023/11/14 05:15:03;;;;;;;12.93;4.13;;;;;;;9.08;100.00;98954.91;5010493;28;20487;-45
2023/11/14 05:17:30;;;;;;;17.23;3.55;;;;;;;9.11;100.00;98945.84;5010513;28;20045;-45
2023/11/14 05:19:59;;;;;;;18.33;3.55;;;;;;;9.12;100.00;98941.94;5003694;28;20112;-44
2023/11/14 05:22:28;;;;;;;14.35;3.33;;;;;;;9.15;100.00;98952.22;5010146;28;20101;-44
2023/11/14 05:24:55;;;;;;;22.83;5.00;;;;;;;9.18;100.00;98957.00;5010779;28;20046;-49
2023/11/14 05:27:22;;;;;;;22.13;4.85;;;;;;;9.19;100.00;98944.75;4996950;28;20041;-50
2023/11/14 05:29:49;;;;;;;19.60;3.08;;;;;;;9.22;100.00;98939.66;5011200;28;20653;-47
2023/11/14 05:32:15;;;;;;;26.23;4.40;;;;;;;9.24;100.00;98959.41;5008617;28;20038;-47
2023/11/14 05:34:44;;;;;;;15.50;3.15;;;;;;;9.25;100.00;98956.25;5009823;28;20092;-45
2023/11/14 05:37:11;;;;;;;18.88;4.70;;;;;;;9.25;100.00;98950.72;5010054;28;20033;-44
2023/11/14 05:39:38;;;;;;;16.30;2.40;;;;;;;9.26;100.00;98957.06;4992947;28;20049;-47
2023/11/14 05:42:05;;;;;;;17.88;3.25;;;;;;;9.27;100.00;98953.91;5010389;28;20042;-46
2023/11/14 05:44:32;;;;;;;13.55;3.03;;;;;;;9.26;100.00;98962.56;4994201;28;20141;-46
2023/11/14 05:46:59;;;;;;;19.17;3.30;;;;;;;9.23;100.00;98944.81;5010367;28;20058;-44
2023/11/14 05:49:27;;;;;;;15.35;3.88;;;;;;;9.21;100.00;98949.91;5009224;28;20038;-45
2023/11/14 05:51:55;;;;;;;18.27;3.38;;;;;;;9.19;100.00;98947.53;5010297;28;20034;-44
2023/11/14 05:54:21;;;;;;;22.58;3.45;;;;;;;9.16;100.00;98953.00;5009631;28;20042;-47
2023/11/14 05:56:48;;;;;;;16.42;2.45;;;;;;;9.15;100.00;98943.16;5010013;28;20179;-44
2023/11/14 05:59:16;;;;;;;15.90;2.65;;;;;;;9.12;100.00;98941.94;5009685;28;20057;-44
2023/11/14 06:01:44;;;;;;;11.02;2.80;;;;;;;9.10;100.00;98943.50;5007796;28;20057;-46
2023/11/14 06:04:10;;;;;;;19.15;5.38;;;;;;;9.06;100.00;98951.72;5009145;28;20499;-46
2023/11/14 06:06:37;;;;;;;13.57;2.95;;;;;;;9.03;100.00;98955.25;5009900;28;20575;-46
2023/11/14 06:09:04;;;;;;;18.45;2.75;;;;;;;8.99;100.00;98957.19;5009485;28;20100;-50
2023/11/14 06:11:31;;;;;;;22.33;4.28;;;;;;;8.99;100.00;98959.94;5008924;28;20073;-46
2023/11/14 06:13:58;;;;;;;15.32;3.22;;;;;;;8.99;100.00;98962.69;5004113;28;20408;-44
2023/11/14 06:16:24;;;;;;;8.77;2.15;;;;;;;8.98;100.00;98968.56;5008610;28;20497;-46
2023/11/14 06:18:53;;;;;;;10.43;2.03;;;;;;;8.98;100.00;98969.38;5007825;28;20111;-45
2023/11/14 06:21:19;;;;;;;17.00;3.67;;;;;;;8.98;100.00;98974.09;5009202;28;20042;-44
2023/11/14 06:23:46;;;;;;;22.23;3.35;;;;;;;8.95;100.00;98964.63;5009484;28;20558;-45
2023/11/14 06:26:13;;;;;;;13.40;2.28;;;;;;;8.95;100.00;98959.09;5009443;28;20085;-44
2023/11/14 06:28:40;;;;;;;15.35;2.88;;;;;;;8.94;100.00;98965.81;5009417;28;20515;-44
2023/11/14 06:31:07;;;;;;;15.13;4.07;;;;;;;8.92;100.00;98959.84;5009272;28;20046;-44
2023/11/14 06:33:34;;;;;;;12.52;2.65;;;;;;;8.89;100.00;98963.38;5009380;28;20038;-45
2023/11/14 06:36:00;;;;;;;12.13;3.10;;;;;;;8.89;100.00;98966.13;5009076;28;20507;-45
2023/11/14 06:38:27;;;;;;;15.65;2.92;;;;;;;8.91;100.00;98963.78;5008087;28;20148;-44
2023/11/14 06:40:58;;;;;;;17.42;3.75;;;;;;;8.91;100.00;98969.31;5008765;28;20045;-45
2023/11/14 06:43:25;;;;;;;16.08;3.00;;;;;;;8.89;100.00;98963.38;5008956;28;20046;-44
2023/11/14 06:45:53;;;;;;;15.98;2.83;;;;;;;8.88;100.00;98952.69;4991151;28;20041;-47
2023/11/14 06:48:20;;;;;;;15.15;2.83;;;;;;;8.88;100.00;98978.34;4991166;28;20561;-44
2023/11/14 06:50:46;;;;;;;18.77;2.92;;;;;;;8.91;100.00;98974.84;5008748;28;20411;-46
2023/11/14 06:53:16;;;;;;;23.27;4.03;;;;;;;8.94;100.00;98970.53;5008382;28;20038;-45
2023/11/14 06:55:43;;;;;;;12.50;2.90;;;;;;;8.96;100.00;98974.50;5008978;28;20077;-45
2023/11/14 06:58:10;;;;;;;11.93;2.22;;;;;;;8.97;100.00;98975.28;5008857;28;20049;-45
2023/11/14 07:00:38;;;;;;;19.10;3.20;;;;;;;8.98;100.00;98974.91;5007008;28;20561;-47
2023/11/14 07:03:04;;;;;;;20.52;5.80;;;;;;;9.01;100.00;98976.91;5006975;28;20049;-48
2023/11/14 07:05:31;;;;;;;12.20;2.60;;;;;;;9.04;100.00;98978.91;5008705;28;20030;-45
2023/11/14 07:07:58;;;;;;;20.23;2.78;;;;;;;9.07;100.00;98980.13;5009470;28;20069;-47
2023/11/14 07:10:25;;;;;;;18.02;5.28;;;;;;;9.09;100.00;98978.56;5007257;28;20030;-47
2023/11/14 07:12:52;;;;;;;11.65;3.20;;;;;;;9.10;100.00;98982.94;5009238;28;20496;-46
2023/11/14 07:15:20;;;;;;;27.70;3.85;;;;;;;9.11;100.00;98981.75;5008369;28;20046;-46
2023/11/14 07:17:48;;;;;;;12.23;2.50;;;;;;;9.14;100.00;98989.28;5009184;28;20057;-45
2023/11/14 07:20:20;;;;;;;21.35;4.60;;;;;;;9.16;100.00;98995.22;5007964;28;20125;-47
2023/11/14 07:22:48;;;;;;;15.90;2.67;;;;;;;9.18;100.00;98992.88;5008018;28;20103;-44
2023/11/14 07:25:15;;;;;;;13.73;4.50;;;;;;;9.22;100.00;98994.88;5007405;28;20064;-45
2023/11/14 07:27:42;;;;;;;13.52;2.60;;;;;;;9.24;100.00;98981.50;5008971;28;20492;-48
2023/11/14 07:30:10;;;;;;;17.02;3.40;;;;;;;9.27;100.00;98991.75;5008648;28;20046;-47
2023/11/14 07:32:37;;;;;;;18.55;5.47;;;;;;;9.31;100.00;98992.59;5010018;28;20486;-45
2023/11/14 07:35:04;;;;;;;14.30;2.63;;;;;;;9.34;100.00;99000.13;5009429;28;20045;-47
2023/11/14 07:37:31;;;;;;;19.02;3.17;;;;;;;9.36;100.00;98995.81;5009392;28;20050;-46
2023/11/14 07:39:58;;;;;;;15.80;2.85;;;;;;;9.38;100.00;99009.25;5008677;28;20381;-46
2023/11/14 07:42:25;;;;;;;14.63;2.70;;;;;;;9.37;100.00;98991.88;5008953;28;20392;-46
2023/11/14 07:44:52;;;;;;;18.88;3.63;;;;;;;9.37;100.00;98999.38;5008385;28;20403;-44
2023/11/14 07:47:18;;;;;;;17.77;2.67;;;;;;;9.37;100.00;99010.44;5008371;28;20038;-46
2023/11/14 07:49:49;;;;;;;24.50;3.80;;;;;;;9.37;100.00;99010.44;5007104;28;20108;-46
2023/11/14 07:52:16;;;;;;;19.08;3.55;;;;;;;9.40;100.00;99012.44;5008416;28;20076;-44
2023/11/14 07:54:42;;;;;;;11.82;2.15;;;;;;;9.44;100.00;99029.81;5008848;28;20091;-44
2023/11/14 07:57:09;;;;;;;9.70;2.80;;;;;;;9.48;100.00;99020.41;5008323;28;20389;-45
2023/11/14 07:59:36;;;;;;;11.52;2.33;;;;;;;9.47;100.00;99024.34;4990754;28;20051;-46
2023/11/14 08:02:02;;;;;;;22.42;3.15;;;;;;;9.45;100.00;99025.91;4999637;28;20152;-44
2023/11/14 08:04:29;;;;;;;17.27;2.78;;;;;;;9.43;100.00;99022.69;5002462;28;20507;-46
2023/11/14 08:06:56;;;;;;;19.40;3.53;;;;;;;9.40;100.00;99015.97;5007250;28;20045;-45
2023/11/14 08:09:24;;;;;;;13.65;2.83;;;;;;;9.36;100.00;99023.44;5005112;28;20033;-48
2023/11/14 08:11:51;;;;;;;16.38;3.67;;;;;;;9.35;100.00;99032.09;4989734;28;20136;-45
2023/11/14 08:14:17;;;;;;;16.25;3.60;;;;;;;9.31;100.00;99020.22;5006281;28;20491;-46
2023/11/14 08:16:44;;;;;;;12.50;2.40;;;;;;;9.28;100.00;99030.06;5006286;28;20063;-46
2023/11/14 08:19:11;;;;;;;16.75;3.60;;;;;;;9.26;100.00;99020.56;4983624;28;20070;-44
2023/11/14 08:21:39;;;;;;;17.30;2.67;;;;;;;9.25;100.00;99027.25;5000644;28;20060;-44
2023/11/14 08:24:06;;;;;;;15.40;3.72;;;;;;;9.25;100.00;99038.28;5008016;28;20396;-48
2023/11/14 08:26:33;;;;;;;16.45;2.92;;;;;;;9.23;100.00;99046.16;5013523;28;20041;-45
2023/11/14 08:28:59;;;;;;;14.98;2.88;;;;;;;9.22;100.00;99047.31;5007015;28;20073;-45
2023/11/14 08:31:26;;;;;;;12.50;2.42;;;;;;;9.21;100.00;99054.03;5013022;28;20100;-45
2023/11/14 08:33:55;;;;;;;11.25;2.70;;;;;;;9.19;100.00;99051.63;5004992;28;20034;-45
2023/11/14 08:36:22;;;;;;;11.07;2.60;;;;;;;9.18;100.00;99050.88;5013614;28;20144;-48
2023/11/14 08:38:49;;;;;;;16.08;3.42;;;;;;;9.15;100.00;99057.13;5014055;28;21072;-48
2023/11/14 08:41:16;;;;;;;11.07;3.17;;;;;;;9.16;100.00;99058.72;5013704;28;20144;-45
2023/11/14 08:43:43;;;;;;;18.05;3.60;;;;;;;9.16;100.00;99063.44;5013884;28;20053;-47
2023/11/14 08:46:11;;;;;;;10.70;3.08;;;;;;;9.18;100.00;99061.13;5013716;28;20403;-45
2023/11/14 08:48:38;;;;;;;16.08;2.78;;;;;;;9.22;100.00;99063.91;5014019;28;20053;-46
2023/11/14 08:51:05;;;;;;;21.67;2.90;;;;;;;9.24;100.00;99065.09;5012007;28;20097;-46
2023/11/14 08:53:31;;;;;;;9.68;2.63;;;;;;;9.27;100.00;99066.31;5014399;28;20065;-46
2023/11/14 08:55:58;;;;;;;19.50;2.75;;;;;;;9.31;100.00;99075.44;5013921;28;20046;-46
2023/11/14 08:58:25;;;;;;;19.40;3.63;;;;;;;9.32;100.00;99079.81;5013897;28;20060;-47
2023/11/14 09:00:54;;;;;;;12.77;2.00;;;;;;;9.34;100.00;99074.69;5012169;28;20439;-48
2023/11/14 09:03:22;;;;;;;17.15;3.58;;;;;;;9.35;100.00;99076.28;5013820;28;20133;-46
2023/11/14 09:05:49;;;;;;;30.58;4.15;;;;;;;9.35;100.00;99084.56;5014035;28;20033;-46
2023/11/14 09:08:15;;;;;;;12.57;2.33;;;;;;;9.34;100.00;99085.75;5013518;28;20042;-45
2023/11/14 09:10:44;;;;;;;12.98;2.75;;;;;;;9.36;100.00;99077.88;5013436;28;20052;-47
2023/11/14 09:13:12;;;;;;;17.27;4.15;;;;;;;9.37;100.00;99083.00;5013647;28;20136;-48
2023/11/14 09:15:40;;;;;;;16.27;3.78;;;;;;;9.37;100.00;99085.00;5013442;28;20050;-44
2023/11/14 09:18:07;;;;;;;15.05;3.03;;;;;;;9.37;100.00;99085.00;5009824;28;20038;-45
2023/11/14 09:20:34;;;;;;;9.43;2.13;;;;;;;9.37;100.00;99090.53;5013228;28;20046;-46
2023/11/14 09:23:02;;;;;;;16.13;3.33;;;;;;;9.38;100.00;99103.94;5012577;28;20045;-45
2023/11/14 09:25:31;;;;;;;16.88;2.60;;;;;;;9.37;100.00;99102.34;5013549;28;20108;-46
2023/11/14 09:27:59;;;;;;;14.50;3.65;;;;;;;9.37;100.00;99107.09;5014126;28;20398;-45
2023/11/14 09:30:27;;;;;;;14.30;3.10;;;;;;;9.35;100.00;99109.41;5013155;28;20045;-46
2023/11/14 09:32:54;;;;;;;17.42;3.28;;;;;;;9.36;100.00;99111.00;5012898;28;20136;-44
2023/11/14 09:35:21;;;;;;;12.57;3.67;;;;;;;9.34;100.00;99110.59;5012548;28;20133;-46
2023/11/14 09:37:49;;;;;;;11.55;3.00;;;;;;;9.32;100.00;99122.00;5008833;28;20038;-48
2023/11/14 09:40:21;;;;;;;17.00;3.38;;;;;;;9.31;100.00;99125.16;5010391;28;20048;-45
2023/11/14 09:42:49;;;;;;;13.98;2.78;;;;;;;9.30;100.00;99118.03;5005801;28;20137;-45
2023/11/14 09:45:20;;;;;;;12.68;3.65;;;;;;;9.32;100.00;99129.53;5000676;28;20439;-44
2023/11/14 09:47:49;;;;;;;17.92;3.30;;;;;;;9.33;100.00;99140.19;5010379;28;20045;-46
2023/11/14 09:50:17;;;;;;;21.60;5.28;;;;;;;9.35;100.00;99139.78;5009005;28;20085;-45
2023/11/14 09:52:47;;;;;;;11.15;3.70;;;;;;;9.38;100.00;99145.38;5009941;28;20145;-47
2023/11/14 09:55:14;;;;;;;16.95;2.67;;;;;;;9.41;100.00;99155.66;5000257;28;21249;-44
2023/11/14 09:57:46;;;;;;;20.85;3.40;;;;;;;9.44;100.00;99148.59;5009902;28;20061;-46
2023/11/14 10:00:16;;;;;;;13.90;3.88;;;;;;;9.47;100.00;99167.19;5010355;28;20096;-45
2023/11/14 10:02:42;;;;;;;16.80;2.50;;;;;;;9.49;100.00;99149.06;5009411;28;20423;-44
2023/11/14 10:05:10;;;;;;;12.27;2.40;;;;;;;9.52;100.00;99164.09;5009762;28;20058;-48
2023/11/14 10:07:43;;;;;;;14.75;2.70;;;;;;;9.54;100.00;99162.53;5007696;28;20030;-44
2023/11/14 10:10:11;;;;;;;11.57;2.75;;;;;;;9.58;100.00;99176.41;5009202;28;20104;-47
2023/11/14 10:12:39;;;;;;;9.40;2.42;;;;;;;9.61;100.00;99175.66;5003718;28;20039;-44
2023/11/14 10:15:10;;;;;;;14.48;2.40;;;;;;;9.65;100.00;99173.72;5001693;28;20053;-45
2023/11/14 10:17:45;;;;;;;16.98;3.28;;;;;;;9.67;100.00;99171.38;5008950;28;20060;-46
2023/11/14 10:20:14;;;;;;;17.90;3.22;;;;;;;9.67;100.00;99165.84;5003756;28;20680;-45
2023/11/14 10:22:52;;;;;;;14.95;3.00;;;;;;;9.68;100.00;99184.03;5009725;28;20046;-45
2023/11/14 10:25:37;;;;;;;23.70;3.65;;;;;;;9.69;100.00;99188.34;5008139;28;20598;-47
2023/11/14 10:28:05;;;;;;;17.77;3.75;;;;;;;9.70;100.00;99189.97;5008730;28;20137;-46
2023/11/14 10:30:45;;;;;;;12.55;2.72;;;;;;;9.70;100.00;99195.47;5007380;28;20052;-49
2023/11/14 10:33:13;;;;;;;15.00;2.45;;;;;;;9.72;100.00;99195.91;5007685;28;20101;-50
2023/11/14 10:35:41;;;;;;;14.07;2.42;;;;;;;9.74;100.00;99199.88;5008586;28;20038;-48
2023/11/14 10:38:16;;;;;;;16.63;2.42;;;;;;;9.83;100.00;99196.81;5007325;28;20072;-44
2023/11/14 10:40:45;;;;;;;10.52;2.40;;;;;;;9.99;100.00;99202.94;5008457;28;20181;-48
2023/11/14 10:43:12;;;;;;;14.23;3.20;;;;;;;10.10;100.00;99217.66;5007461;28;20133;-45
2023/11/14 10:45:38;;;;;;;19.02;3.83;;;;;;;10.20;100.00;99222.53;5007499;28;20096;-46
2023/11/14 10:48:06;;;;;;;18.77;3.17;;;;;;;10.27;100.00;99222.59;5007418;28;20066;-47
2023/11/14 10:50:34;;;;;;;18.95;3.22;;;;;;;10.32;100.00;99213.19;5007145;28;20038;-48
2023/11/14 10:53:02;;;;;;;22.92;4.43;;;;;;;10.36;100.00;99223.09;5007216;28;20107;-48
2023/11/14 10:55:29;;;;;;;20.90;3.40;;;;;;;10.42;100.00;99233.81;5006843;28;20144;-44
2023/11/14 10:57:55;;;;;;;17.35;3.65;;;;;;;10.42;100.00;99211.69;5005225;28;20046;-46
2023/11/14 11:00:22;;;;;;;14.88;2.78;;;;;;;10.46;100.00;99229.13;5006335;28;20042;-45
2023/11/14 11:02:51;;;;;;;12.10;2.60;;;;;;;10.49;100.00;99237.44;5006996;28;20092;-46
2023/11/14 11:05:28;;;;;;;16.02;3.20;;;;;;;10.50;100.00;99241.81;5007023;28;20705;-46
2023/11/14 11:08:05;;;;;;;17.55;4.45;;;;;;;10.53;100.00;99234.72;4998684;28;20045;-45
2023/11/14 11:10:36;;;;;;;22.02;3.35;;;;;;;10.60;100.00;99240.31;5006310;28;20125;-46
2023/11/14 11:13:10;;;;;;;11.48;2.38;;;;;;;10.64;100.00;99247.47;5007747;28;20054;-45
2023/11/14 11:15:47;;;;;;;18.20;3.17;;;;;;;10.68;100.00;99250.25;5007379;28;20037;-45
2023/11/14 11:18:15;;;;;;;10.50;2.60;;;;;;;10.71;100.00;99253.06;5007618;28;20049;-45
2023/11/14 11:20:43;;;;;;;12.60;2.50;;;;;;;10.75;100.00;99253.13;4996110;28;20058;-45
2023/11/14 11:23:14;;;;;;;15.32;2.55;;;;;;;10.76;100.00;99257.44;5006869;28;20049;-47
2023/11/14 11:25:42;;;;;;;13.17;2.60;;;;;;;10.76;100.00;99257.44;5007431;28;20132;-47